createdAt,value
2022-12-16T00:00:05.832Z,32.83
2022-12-16T00:02:33.056Z,32.72
2022-12-16T00:04:59.627Z,33.40
2022-12-16T00:07:26.167Z,32.67
2022-12-16T00:09:52.626Z,32.42
2022-12-16T00:12:19.245Z,35.10
2022-12-16T00:14:45.765Z,34.72
2022-12-16T00:17:12.328Z,34.22
2022-12-16T00:19:38.865Z,35.47
2022-12-16T00:22:05.587Z,34.53
2022-12-16T00:24:32.076Z,35.00
2022-12-16T00:26:58.609Z,34.65
2022-12-16T00:29:25.152Z,33.25
2022-12-16T00:31:51.693Z,33.60
2022-12-16T00:34:19.260Z,33.35
2022-12-16T00:36:45.807Z,35.28
2022-12-16T00:39:12.392Z,38.50
2022-12-16T00:41:38.900Z,30.80
2022-12-16T00:44:05.499Z,34.45
2022-12-16T00:46:32.097Z,35.22
2022-12-16T00:48:58.650Z,33.80
2022-12-16T00:51:25.198Z,34.55
2022-12-16T00:53:51.815Z,37.22
2022-12-16T00:56:18.646Z,30.42
2022-12-16T00:58:45.107Z,31.60
2022-12-16T01:01:12.225Z,32.72
2022-12-16T01:03:39.483Z,30.63
2022-12-16T01:06:15.873Z,31.92
2022-12-16T01:08:49.297Z,33.42
2022-12-16T01:11:17.261Z,32.13
2022-12-16T01:13:44.563Z,32.05
2022-12-16T01:16:11.267Z,33.75
2022-12-16T01:18:38.066Z,34.35
2022-12-16T01:21:06.707Z,32.03
2022-12-16T01:23:34.192Z,35.90
2022-12-16T01:26:02.037Z,31.50
2022-12-16T01:28:29.206Z,32.55
2022-12-16T01:31:01.734Z,31.67
2022-12-16T01:33:30.549Z,34.50
2022-12-16T01:36:03.470Z,32.08
2022-12-16T01:38:30.141Z,36.00
2022-12-16T01:40:56.928Z,28.33
2022-12-16T01:43:29.708Z,29.00
2022-12-16T01:46:12.117Z,32.83
2022-12-16T01:48:51.055Z,27.20
2022-12-16T01:51:32.530Z,29.38
2022-12-16T01:54:05.740Z,26.98
2022-12-16T01:56:34.833Z,31.73
2022-12-16T01:59:02.869Z,30.35
2022-12-16T02:01:29.879Z,26.73
2022-12-16T02:04:01.723Z,26.70
2022-12-16T02:06:29.655Z,27.45
2022-12-16T02:08:58.496Z,28.38
2022-12-16T02:11:43.619Z,33.00
2022-12-16T02:14:29.498Z,32.33
2022-12-16T02:17:16.732Z,36.38
2022-12-16T02:19:58.431Z,31.23
2022-12-16T02:22:40.711Z,32.88
2022-12-16T02:25:38.065Z,31.83
2022-12-16T02:28:13.054Z,25.60
2022-12-16T02:31:27.255Z,29.27
2022-12-16T02:34:10.300Z,28.88
2022-12-16T02:36:57.283Z,34.95
2022-12-16T02:39:37.073Z,33.50
2022-12-16T02:42:06.409Z,32.70
2022-12-16T02:44:47.407Z,33.33
2022-12-16T02:47:14.211Z,32.63
2022-12-16T02:49:47.663Z,35.03
2022-12-16T02:52:15.443Z,34.15
2022-12-16T02:54:43.060Z,32.22
2022-12-16T02:57:37.546Z,33.28
2022-12-16T03:00:08.432Z,34.20
2022-12-16T03:03:08.705Z,33.65
2022-12-16T03:05:48.882Z,35.10
2022-12-16T03:08:29.988Z,35.90
2022-12-16T03:11:04.032Z,34.97
2022-12-16T03:13:44.797Z,34.65
2022-12-16T03:16:14.464Z,35.80
2022-12-16T03:18:46.270Z,36.22
2022-12-16T03:21:14.604Z,35.53
2022-12-16T03:23:47.495Z,34.38
2022-12-16T03:26:21.640Z,35.33
2022-12-16T03:28:58.886Z,34.58
2022-12-16T03:31:47.225Z,35.25
2022-12-16T03:34:25.304Z,35.50
2022-12-16T03:36:59.941Z,33.33
2022-12-16T03:39:27.450Z,37.40
2022-12-16T03:41:55.878Z,35.13
2022-12-16T03:44:25.212Z,39.20
2022-12-16T03:46:52.528Z,39.38
2022-12-16T03:49:19.123Z,36.85
2022-12-16T03:51:45.607Z,37.10
2022-12-16T03:54:12.090Z,36.20
2022-12-16T03:56:38.681Z,36.70
2022-12-16T03:59:05.186Z,36.05
2022-12-16T04:01:31.897Z,37.35
2022-12-16T04:03:58.513Z,39.88
2022-12-16T04:06:25.109Z,37.35
2022-12-16T04:08:51.648Z,37.90
2022-12-16T04:11:36.492Z,40.58
2022-12-16T04:14:21.286Z,39.30
2022-12-16T04:17:07.255Z,40.60
2022-12-16T04:19:55.320Z,37.42
2022-12-16T04:22:55.040Z,37.38
2022-12-16T04:25:28.963Z,39.42
2022-12-16T04:27:55.497Z,38.40
2022-12-16T04:30:22.144Z,39.30
2022-12-16T04:33:31.453Z,41.42
2022-12-16T04:36:16.736Z,38.03
2022-12-16T04:39:01.643Z,37.35
2022-12-16T04:41:46.768Z,37.05
2022-12-16T04:44:32.386Z,38.15
2022-12-16T04:47:17.893Z,39.95
2022-12-16T04:50:03.040Z,42.00
2022-12-16T04:52:48.106Z,38.53
2022-12-16T04:55:33.287Z,32.78
2022-12-16T04:58:21.092Z,33.50
2022-12-16T05:01:06.942Z,31.40
2022-12-16T05:03:53.193Z,31.33
2022-12-16T05:06:39.068Z,31.23
2022-12-16T05:09:24.564Z,33.20
2022-12-16T05:12:09.755Z,31.45
2022-12-16T05:14:55.009Z,31.30
2022-12-16T05:17:40.518Z,31.23
2022-12-16T05:20:26.485Z,34.40
2022-12-16T05:23:14.777Z,32.38
2022-12-16T05:26:00.110Z,31.90
2022-12-16T05:28:45.320Z,33.20
2022-12-16T05:31:30.254Z,38.50
2022-12-16T05:34:15.556Z,33.60
2022-12-16T05:37:00.375Z,35.88
2022-12-16T05:39:45.310Z,35.83
2022-12-16T05:42:30.643Z,37.63
2022-12-16T05:45:15.786Z,34.00
2022-12-16T05:48:00.836Z,34.97
2022-12-16T05:50:45.766Z,36.13
2022-12-16T05:53:31.633Z,36.40
2022-12-16T05:56:17.159Z,34.63
2022-12-16T05:59:02.175Z,38.30
2022-12-16T06:01:47.785Z,41.28
2022-12-16T06:04:32.989Z,35.72
2022-12-16T06:07:18.231Z,37.47
2022-12-16T06:10:03.159Z,35.88
2022-12-16T06:12:48.711Z,37.17
2022-12-16T06:15:34.083Z,37.70
2022-12-16T06:18:19.137Z,36.60
2022-12-16T06:21:04.147Z,36.35
2022-12-16T06:23:49.338Z,36.00
2022-12-16T06:26:35.011Z,39.63
2022-12-16T06:29:19.947Z,37.33
2022-12-16T06:32:05.109Z,40.33
2022-12-16T06:34:50.404Z,38.60
2022-12-16T06:37:35.391Z,37.38
2022-12-16T06:40:21.024Z,40.60
2022-12-16T06:43:06.435Z,39.47
2022-12-16T06:45:51.671Z,37.10
2022-12-16T06:48:36.925Z,40.95
2022-12-16T06:51:22.169Z,38.67
2022-12-16T06:54:07.390Z,36.25
2022-12-16T06:56:52.271Z,36.55
2022-12-16T06:59:37.361Z,38.90
2022-12-16T07:02:22.310Z,39.42
2022-12-16T07:05:07.683Z,40.55
2022-12-16T07:07:52.574Z,38.35
2022-12-16T07:10:37.915Z,33.78
2022-12-16T07:13:22.680Z,38.78
2022-12-16T07:16:07.711Z,38.60
2022-12-16T07:18:52.963Z,35.85
2022-12-16T07:21:37.851Z,36.60
2022-12-16T07:24:23.284Z,37.63
2022-12-16T07:27:08.347Z,36.90
2022-12-16T07:29:53.839Z,39.08
2022-12-16T07:32:38.819Z,38.60
2022-12-16T07:35:24.032Z,34.70
2022-12-16T07:38:09.614Z,35.33
2022-12-16T07:40:54.767Z,38.00
2022-12-16T07:43:40.926Z,38.83
2022-12-16T07:46:25.790Z,34.45
2022-12-16T07:49:18.433Z,36.83
2022-12-16T07:52:03.920Z,34.50
2022-12-16T07:54:49.108Z,34.38
2022-12-16T07:57:34.332Z,38.63
2022-12-16T08:00:19.423Z,38.22
2022-12-16T08:03:04.602Z,34.47
2022-12-16T08:05:49.830Z,34.28
2022-12-16T08:08:34.592Z,35.03
2022-12-16T08:11:19.875Z,34.13
2022-12-16T08:14:04.752Z,40.17
2022-12-16T08:16:49.799Z,37.30
2022-12-16T08:19:35.128Z,35.20
2022-12-16T08:22:20.071Z,33.67
2022-12-16T08:25:04.959Z,33.70
2022-12-16T08:27:50.025Z,39.35
2022-12-16T08:30:35.406Z,34.22
2022-12-16T08:33:20.631Z,34.67
2022-12-16T08:36:06.727Z,38.40
2022-12-16T08:38:52.012Z,34.08
2022-12-16T08:41:38.348Z,36.00
2022-12-16T08:44:23.823Z,35.50
2022-12-16T08:47:08.911Z,35.70
2022-12-16T08:49:57.681Z,33.30
2022-12-16T08:52:46.876Z,34.33
2022-12-16T08:55:32.199Z,32.63
2022-12-16T08:58:17.417Z,30.95
2022-12-16T09:01:06.977Z,30.90
2022-12-16T09:03:52.964Z,30.40
2022-12-16T09:06:40.635Z,31.05
2022-12-16T09:09:26.666Z,31.83
2022-12-16T09:12:11.533Z,28.02
2022-12-16T09:14:56.742Z,31.13
2022-12-16T09:17:42.040Z,30.23
2022-12-16T09:20:27.628Z,30.33
2022-12-16T09:23:12.903Z,31.13
2022-12-16T09:25:58.270Z,29.70
2022-12-16T09:28:43.447Z,29.85
2022-12-16T09:31:28.869Z,29.77
2022-12-16T09:34:14.096Z,29.75
2022-12-16T09:36:59.408Z,31.23
2022-12-16T09:39:44.560Z,32.45
2022-12-16T09:42:46.888Z,33.50
2022-12-16T09:45:50.974Z,31.23
2022-12-16T09:48:49.220Z,34.85
2022-12-16T09:51:35.811Z,32.63
2022-12-16T09:54:22.208Z,34.30
2022-12-16T09:57:07.589Z,32.42
2022-12-16T09:59:57.257Z,33.38
2022-12-16T10:02:44.143Z,33.22
2022-12-16T10:06:19.024Z,32.70
2022-12-16T10:09:14.138Z,35.35
2022-12-16T10:12:39.617Z,32.72
2022-12-16T10:15:50.008Z,32.30
2022-12-16T10:18:49.881Z,32.53
2022-12-16T10:21:42.435Z,32.47
2022-12-16T10:24:37.106Z,32.65
2022-12-16T10:27:33.472Z,32.25
2022-12-16T10:30:20.010Z,32.53
2022-12-16T10:33:07.714Z,30.35
2022-12-16T10:35:57.585Z,31.90
2022-12-16T10:38:53.667Z,30.40
2022-12-16T10:41:41.371Z,30.63
2022-12-16T10:45:13.136Z,32.03
2022-12-16T10:47:58.829Z,30.90
2022-12-16T10:50:44.134Z,31.40
2022-12-16T10:53:39.212Z,30.98
2022-12-16T10:56:45.086Z,29.60
2022-12-16T10:59:30.765Z,29.45
2022-12-16T11:02:21.770Z,30.50
2022-12-16T11:05:08.032Z,34.33
2022-12-16T11:08:02.942Z,33.00
2022-12-16T11:10:58.820Z,30.02
2022-12-16T11:13:55.396Z,32.03
2022-12-16T11:16:46.209Z,31.90
2022-12-16T11:19:40.398Z,30.48
2022-12-16T11:22:38.398Z,29.95
2022-12-16T11:25:29.386Z,30.23
2022-12-16T11:28:26.642Z,30.77
2022-12-16T11:31:13.791Z,32.47
2022-12-16T11:33:59.321Z,33.45
2022-12-16T11:36:45.677Z,31.65
2022-12-16T11:39:34.807Z,31.55
2022-12-16T11:42:20.847Z,34.45
2022-12-16T11:45:12.216Z,31.17
2022-12-16T11:48:14.958Z,30.55
2022-12-16T11:51:11.871Z,30.52
2022-12-16T11:54:06.727Z,30.45
2022-12-16T11:56:56.143Z,28.10
2022-12-16T11:59:44.231Z,27.88
2022-12-16T12:03:02.075Z,30.52
2022-12-16T12:06:17.917Z,28.65
2022-12-16T12:09:10.075Z,25.60
2022-12-16T12:12:10.002Z,28.20
2022-12-16T12:15:15.599Z,27.73
2022-12-16T12:18:13.806Z,28.42
2022-12-16T12:21:12.019Z,30.15
2022-12-16T12:24:15.103Z,29.15
2022-12-16T12:27:09.316Z,27.00
2022-12-16T12:33:01.510Z,29.45
2022-12-16T12:36:38.448Z,28.17
2022-12-16T12:39:42.755Z,25.65
2022-12-16T12:42:54.966Z,26.23
2022-12-16T12:46:00.682Z,26.75
2022-12-16T12:49:07.963Z,27.92
2022-12-16T12:52:10.578Z,26.42
2022-12-16T12:55:04.503Z,28.10
2022-12-16T12:57:53.492Z,32.35
2022-12-16T13:00:42.818Z,27.85
2022-12-16T13:03:37.799Z,26.80
2022-12-16T13:06:23.902Z,29.75
2022-12-16T13:09:09.301Z,28.15
2022-12-16T13:11:55.965Z,26.33
2022-12-16T13:14:50.428Z,27.48
2022-12-16T13:17:37.718Z,28.23
2022-12-16T13:20:47.064Z,28.55
2022-12-16T13:23:51.356Z,26.95
2022-12-16T13:26:38.622Z,24.75
2022-12-16T13:29:30.089Z,23.70
2022-12-16T13:32:21.454Z,26.52
2022-12-16T13:35:18.280Z,25.40
2022-12-16T13:38:17.832Z,29.45
2022-12-16T13:41:12.052Z,22.27
2022-12-16T13:47:06.314Z,24.92
2022-12-16T13:49:54.273Z,23.23
2022-12-16T13:53:05.306Z,20.20
2022-12-16T13:56:15.967Z,23.23
2022-12-16T13:59:06.288Z,21.75
2022-12-16T14:02:11.343Z,22.52
2022-12-16T14:05:02.484Z,21.98
2022-12-16T14:07:51.112Z,22.23
2022-12-16T14:10:45.151Z,21.58
2022-12-16T14:13:42.324Z,22.73
2022-12-16T14:16:39.507Z,22.42
2022-12-16T14:19:44.438Z,21.92
2022-12-16T14:22:54.179Z,20.75
2022-12-16T14:25:40.884Z,20.63
2022-12-16T14:28:51.856Z,21.48
2022-12-16T14:31:41.350Z,21.25
2022-12-16T14:34:41.654Z,21.73
2022-12-16T14:37:38.561Z,20.90
2022-12-16T14:40:38.750Z,19.10
2022-12-16T14:43:32.055Z,21.20
2022-12-16T14:46:17.806Z,22.10
2022-12-16T14:49:07.099Z,20.20
2022-12-16T14:51:57.236Z,21.45
2022-12-16T14:54:45.316Z,23.40
2022-12-16T14:57:37.011Z,21.83
2022-12-16T15:00:28.353Z,21.85
2022-12-16T15:03:36.799Z,21.45
2022-12-16T15:06:25.545Z,22.20
2022-12-16T15:09:16.654Z,22.17
2022-12-16T15:12:03.134Z,22.27
2022-12-16T15:14:51.034Z,24.90
2022-12-16T15:17:42.867Z,22.33
2022-12-16T15:20:43.798Z,23.50
2022-12-16T15:23:42.797Z,24.70
2022-12-16T15:26:35.242Z,22.80
2022-12-16T15:29:20.698Z,23.90
2022-12-16T15:32:05.661Z,27.35
2022-12-16T15:35:04.232Z,23.95
2022-12-16T15:38:06.576Z,23.50
2022-12-16T15:40:53.066Z,22.50
2022-12-16T15:43:53.650Z,26.33
2022-12-16T15:47:03.871Z,25.65
2022-12-16T15:49:59.339Z,21.77
2022-12-16T15:52:48.875Z,21.20
2022-12-16T15:55:41.611Z,25.75
2022-12-16T15:58:40.306Z,23.05
2022-12-16T16:01:26.708Z,22.13
2022-12-16T16:04:14.423Z,25.90
2022-12-16T16:07:10.907Z,21.55
2022-12-16T16:09:57.891Z,25.00
2022-12-16T16:12:44.180Z,21.85
2022-12-16T16:15:32.454Z,26.35
2022-12-16T16:21:26.426Z,25.92
2022-12-16T16:24:11.434Z,26.30
2022-12-16T16:26:56.341Z,26.38
2022-12-16T16:29:41.607Z,29.05
2022-12-16T16:32:27.799Z,27.17
2022-12-16T16:35:13.106Z,28.38
2022-12-16T16:37:58.571Z,26.13
2022-12-16T16:40:51.659Z,24.73
2022-12-16T16:43:37.018Z,23.83
2022-12-16T16:46:33.489Z,25.90
2022-12-16T16:49:18.824Z,27.45
2022-12-16T16:52:04.069Z,24.60
2022-12-16T16:54:48.895Z,27.42
2022-12-16T16:57:34.397Z,21.88
2022-12-16T17:00:19.537Z,26.30
2022-12-16T17:03:04.995Z,24.10
2022-12-16T17:05:50.356Z,24.23
2022-12-16T17:08:35.181Z,26.48
2022-12-16T17:11:20.817Z,23.00
2022-12-16T17:14:05.953Z,23.77
2022-12-16T17:16:51.162Z,23.52
2022-12-16T17:19:36.620Z,27.05
2022-12-16T17:22:21.903Z,26.38
2022-12-16T17:25:06.949Z,26.17
2022-12-16T17:27:52.121Z,22.77
2022-12-16T17:30:46.485Z,25.45
2022-12-16T17:33:33.854Z,27.75
2022-12-16T17:36:19.883Z,22.15
2022-12-16T17:39:05.228Z,40.78
2022-12-16T17:41:52.271Z,21.92
2022-12-16T17:44:37.958Z,21.63
2022-12-16T17:47:23.296Z,24.25
2022-12-16T17:50:08.396Z,23.70
2022-12-16T17:52:53.568Z,22.80
2022-12-16T17:55:38.782Z,22.10
2022-12-16T17:58:23.686Z,23.85
2022-12-16T18:01:08.680Z,21.25
2022-12-16T18:03:54.196Z,24.05
2022-12-16T18:06:39.425Z,24.58
2022-12-16T18:09:24.696Z,22.42
2022-12-16T18:12:09.774Z,23.13
2022-12-16T18:14:56.787Z,22.13
2022-12-16T18:17:41.720Z,22.33
2022-12-16T18:20:27.507Z,27.52
2022-12-16T18:23:13.184Z,25.08
2022-12-16T18:25:58.475Z,24.73
2022-12-16T18:28:43.461Z,24.42
2022-12-16T18:31:29.065Z,25.48
2022-12-16T18:34:14.402Z,27.08
2022-12-16T18:36:59.844Z,27.13
2022-12-16T18:39:44.727Z,23.10
2022-12-16T18:42:31.174Z,20.75
2022-12-16T18:45:16.004Z,22.63
2022-12-16T18:48:00.963Z,21.77
2022-12-16T18:50:53.717Z,23.65
2022-12-16T18:53:41.792Z,27.20
2022-12-16T18:56:28.571Z,22.80
2022-12-16T18:59:14.335Z,23.10
2022-12-16T19:01:59.675Z,21.88
2022-12-16T19:04:44.874Z,20.02
2022-12-16T19:07:33.628Z,20.00
2022-12-16T19:10:19.235Z,20.30
2022-12-16T19:13:04.030Z,21.27
2022-12-16T19:15:49.201Z,22.75
2022-12-16T19:18:34.466Z,22.05
2022-12-16T19:21:19.835Z,21.63
2022-12-16T19:24:07.690Z,22.33
2022-12-16T19:26:52.992Z,23.50
2022-12-16T19:29:41.888Z,21.98
2022-12-16T19:32:26.870Z,22.63
2022-12-16T19:35:12.038Z,22.25
2022-12-16T19:37:57.328Z,20.70
2022-12-16T19:40:42.575Z,23.08
2022-12-16T19:43:27.678Z,24.15
2022-12-16T19:46:13.943Z,24.20
2022-12-16T19:48:59.115Z,26.27
2022-12-16T19:51:44.458Z,23.15
2022-12-16T19:54:29.411Z,21.55
2022-12-16T19:57:14.281Z,31.73
2022-12-16T19:59:59.036Z,23.80
2022-12-16T20:05:52.714Z,26.15
2022-12-16T20:08:38.550Z,37.72
2022-12-16T20:11:27.907Z,23.85
2022-12-16T20:14:14.844Z,23.98
2022-12-16T20:17:01.326Z,22.98
2022-12-16T20:19:46.260Z,26.98
2022-12-16T20:22:31.267Z,24.67
2022-12-16T20:25:16.636Z,26.92
2022-12-16T20:28:01.590Z,24.60
2022-12-16T20:30:46.809Z,22.77
2022-12-16T20:33:33.676Z,25.08
2022-12-16T20:36:21.318Z,22.70
2022-12-16T20:39:06.527Z,24.60
2022-12-16T20:41:51.754Z,28.25
2022-12-16T20:44:36.880Z,24.30
2022-12-16T20:47:22.018Z,29.48
2022-12-16T20:50:07.191Z,23.38
2022-12-16T20:52:52.028Z,25.40
2022-12-16T20:55:37.008Z,21.85
2022-12-16T20:58:22.340Z,22.33
2022-12-16T21:01:14.960Z,22.50
2022-12-16T21:03:59.951Z,22.33
2022-12-16T21:06:44.885Z,21.85
2022-12-16T21:09:29.907Z,22.98
2022-12-16T21:12:15.317Z,21.70
2022-12-16T21:15:00.369Z,21.40
2022-12-16T21:17:45.303Z,20.92
2022-12-16T21:20:30.927Z,21.95
2022-12-16T21:23:18.286Z,23.48
2022-12-16T21:26:03.517Z,24.30
2022-12-16T21:28:48.679Z,23.23
2022-12-16T21:31:34.026Z,21.70
2022-12-16T21:34:18.976Z,22.50
2022-12-16T21:37:04.038Z,22.75
2022-12-16T21:39:49.337Z,24.83
2022-12-16T21:42:36.736Z,22.80
2022-12-16T21:45:24.106Z,23.33
2022-12-16T21:48:12.935Z,22.00
2022-12-16T21:50:58.093Z,22.85
2022-12-16T21:53:57.186Z,23.92
2022-12-16T21:56:42.432Z,23.58
2022-12-16T21:59:27.515Z,22.75
2022-12-16T22:02:12.708Z,23.13
2022-12-16T22:04:57.848Z,22.55
2022-12-16T22:07:45.466Z,23.38
2022-12-16T22:10:31.113Z,22.50
2022-12-16T22:13:18.563Z,22.73
2022-12-16T22:16:16.468Z,23.55
2022-12-16T22:19:18.552Z,24.73
2022-12-16T22:22:05.872Z,22.38
2022-12-16T22:24:51.284Z,22.58
2022-12-16T22:27:38.960Z,24.10
2022-12-16T22:30:24.922Z,23.13
2022-12-16T22:33:10.152Z,23.02
2022-12-16T22:35:55.011Z,23.85
2022-12-16T22:38:40.454Z,25.15
2022-12-16T22:41:25.633Z,23.15
2022-12-16T22:44:10.421Z,24.48
2022-12-16T22:46:56.153Z,24.83
2022-12-16T22:49:41.493Z,22.75
2022-12-16T22:52:26.680Z,23.08
2022-12-16T22:55:11.494Z,23.90
2022-12-16T22:57:56.632Z,23.23
2022-12-16T23:00:58.268Z,23.77
2022-12-16T23:03:44.275Z,22.30
2022-12-16T23:06:29.989Z,23.05
2022-12-16T23:09:15.420Z,23.08
2022-12-16T23:12:00.904Z,21.77
2022-12-16T23:14:46.340Z,22.13
2022-12-16T23:17:32.015Z,21.45
2022-12-16T23:20:17.202Z,20.95
2022-12-16T23:23:02.158Z,22.02
2022-12-16T23:25:47.661Z,19.52
2022-12-16T23:28:32.915Z,20.88
2022-12-16T23:31:18.241Z,24.60
2022-12-16T23:34:03.362Z,27.13
2022-12-16T23:36:48.322Z,24.58
2022-12-16T23:39:33.595Z,22.00
2022-12-16T23:42:18.562Z,21.38
2022-12-16T23:45:03.765Z,21.33
2022-12-16T23:47:48.924Z,21.80
2022-12-16T23:50:34.150Z,21.58
2022-12-16T23:53:27.128Z,21.92
2022-12-16T23:56:18.139Z,21.13
2022-12-16T23:59:03.493Z,20.77
